Time;durP1;ratioP1;P1;durP2;ratioP2;P2;SDS_P1;SDS_P2;PMS_P1;PMS_P2;Temp;Humidity;BMP_temperature;BMP_pressure;BME280_temperature;BME280_humidity;BME280_pressure;Samples;Min_cycle;Max_cycle;Signal;HPM_P1;HPM_P2
2023/10/06 00:01:42;;;;;;;11.18;4.70;;;;;;;14.93;100.00;102321.75;10462122;28;20051;-66
2023/10/06 00:07:07;;;;;;;9.90;4.55;;;;;;;14.89;100.00;102334.88;10482589;28;20561;-66
2023/10/06 00:12:31;;;;;;;11.63;4.97;;;;;;;14.83;100.00;102329.81;10469301;28;20512;-66
2023/10/06 00:18:00;;;;;;;9.60;4.50;;;;;;;14.83;100.00;102330.66;10462193;28;20053;-66
2023/10/06 00:23:23;;;;;;;11.95;4.70;;;;;;;14.81;100.00;102326.41;10472009;28;20055;-66
2023/10/06 00:28:47;;;;;;;10.23;4.80;;;;;;;14.77;100.00;102335.16;10476853;28;20445;-66
2023/10/06 00:34:10;;;;;;;13.70;4.60;;;;;;;14.72;100.00;102327.44;10468527;28;20036;-66
2023/10/06 00:39:32;;;;;;;9.90;4.18;;;;;;;14.66;100.00;102311.97;10463338;28;20134;-66
2023/10/06 00:44:54;;;;;;;11.82;4.20;;;;;;;14.74;99.81;102319.63;10467227;28;20041;-66
2023/10/06 00:50:21;;;;;;;11.55;4.30;;;;;;;14.70;100.00;102312.75;10462915;28;20045;-66
2023/10/06 00:55:44;;;;;;;13.50;4.45;;;;;;;14.63;99.90;102314.63;10470571;28;20056;-66
2023/10/06 01:01:12;;;;;;;10.38;4.55;;;;;;;14.66;99.64;102321.53;10467267;28;20553;-66
2023/10/06 01:06:41;;;;;;;11.48;4.75;;;;;;;14.65;99.66;102320.66;10469775;28;20709;-66
2023/10/06 01:12:06;;;;;;;12.93;4.93;;;;;;;14.63;99.21;102317.22;10470180;28;20385;-66
2023/10/06 01:17:31;;;;;;;12.98;5.13;;;;;;;14.68;100.00;102298.91;10462481;28;20037;-66
2023/10/06 01:22:56;;;;;;;14.80;5.38;;;;;;;14.66;99.75;102296.34;10475455;28;20068;-66
2023/10/06 01:28:19;;;;;;;17.88;5.80;;;;;;;14.70;99.38;102291.91;10464772;28;20052;-66
2023/10/06 01:33:40;;;;;;;9.60;6.30;;;;;;;14.66;99.22;102293.72;10472461;28;20076;-66
2023/10/06 01:39:04;;;;;;;12.48;6.43;;;;;;;14.68;99.26;102289.34;10472573;28;20058;-66
2023/10/06 01:44:27;;;;;;;16.50;6.60;;;;;;;14.70;98.76;102255.44;10488794;28;20067;-66
2023/10/06 01:49:48;;;;;;;16.00;6.68;;;;;;;14.69;99.72;102238.94;10471098;28;20059;-66
2023/10/06 01:55:10;;;;;;;17.27;7.90;;;;;;;14.66;99.16;102239.00;10473609;28;20127;-66
2023/10/06 02:00:34;;;;;;;13.98;8.07;;;;;;;14.63;99.28;102239.06;10465459;28;20094;-66
2023/10/06 02:05:59;;;;;;;14.25;7.55;;;;;;;14.64;98.23;102240.78;10486241;28;20039;-66
2023/10/06 02:11:23;;;;;;;20.93;8.17;;;;;;;14.64;99.36;102230.38;10460186;28;20151;-66
2023/10/06 02:16:46;;;;;;;21.52;8.70;;;;;;;14.62;99.29;102226.94;10470493;28;20516;-66
2023/10/06 02:22:08;;;;;;;18.98;9.00;;;;;;;14.60;98.77;102228.72;10485221;28;20397;-66
2023/10/06 02:27:35;;;;;;;16.65;8.23;;;;;;;14.59;98.90;102223.56;10470285;28;20137;-66
2023/10/06 02:32:57;;;;;;;17.65;8.85;;;;;;;14.60;98.62;102222.66;10489300;28;20055;-66
2023/10/06 02:38:20;;;;;;;15.82;8.77;;;;;;;14.59;97.97;102224.44;10471313;28;20051;-66
2023/10/06 02:43:42;;;;;;;15.98;9.07;;;;;;;14.59;98.25;102220.97;10471703;28;20135;-66
2023/10/06 02:49:08;;;;;;;17.60;8.82;;;;;;;14.60;97.84;102228.72;10469331;28;20080;-66
2023/10/06 02:54:30;;;;;;;19.75;8.63;;;;;;;14.60;97.81;102217.44;10473193;28;20036;-66
2023/10/06 02:59:56;;;;;;;13.65;8.05;;;;;;;14.55;97.47;102209.75;10473681;28;20148;-66
2023/10/06 03:05:19;;;;;;;13.52;7.78;;;;;;;14.60;97.19;102205.28;10461656;28;20048;-66
2023/10/06 03:10:45;;;;;;;16.02;7.78;;;;;;;14.57;97.73;102202.75;10479715;28;20412;-66
2023/10/06 03:16:14;;;;;;;15.98;7.35;;;;;;;14.60;96.94;102192.25;10457757;28;20135;-66
2023/10/06 03:21:39;;;;;;;16.10;7.28;;;;;;;14.59;96.57;102206.19;10469611;28;20056;-66
2023/10/06 03:27:06;;;;;;;16.35;8.00;;;;;;;14.59;96.48;102185.34;10479501;28;20040;-66
2023/10/06 03:32:32;;;;;;;16.33;7.25;;;;;;;14.62;96.91;102182.66;10462871;28;20041;-66
2023/10/06 03:38:07;;;;;;;;;;;;;;;14.59;96.01;102185.34;10475066;28;20045;-66
2023/10/06 03:43:50;;;;;;;;;;;;;;;14.56;95.97;102185.41;10481358;28;19927;-66
2023/10/06 03:49:13;;;;;;;15.35;7.05;;;;;;;14.55;96.17;102180.25;10470288;28;20006;-66
2023/10/06 03:54:36;;;;;;;13.23;6.55;;;;;;;14.57;95.74;102163.69;10467795;28;20125;-66
2023/10/06 03:59:58;;;;;;;11.32;6.75;;;;;;;14.51;96.32;102156.00;10467509;28;20450;-66
2023/10/06 04:05:21;;;;;;;15.85;6.88;;;;;;;14.52;95.96;102152.50;10468174;28;20447;-66
2023/10/06 04:10:44;;;;;;;12.50;6.38;;;;;;;14.52;96.22;102131.66;10486631;28;20052;-66
2023/10/06 04:16:06;;;;;;;14.07;7.07;;;;;;;14.53;96.56;102148.16;10470158;28;20060;-66
2023/10/06 04:21:28;;;;;;;18.30;7.05;;;;;;;14.51;97.00;102147.34;10465734;28;20389;-66
2023/10/06 04:26:49;;;;;;;12.93;6.28;;;;;;;14.51;95.65;102135.19;10466365;28;20049;-66
2023/10/06 04:32:13;;;;;;;16.17;6.47;;;;;;;14.49;95.68;102130.88;10468432;28;20597;-66
2023/10/06 04:37:35;;;;;;;14.55;7.13;;;;;;;14.45;95.79;102119.69;10455498;28;20040;-66
2023/10/06 04:42:57;;;;;;;13.90;6.63;;;;;;;14.41;95.93;102123.25;10461842;28;20080;-66
2023/10/06 04:48:19;;;;;;;10.38;6.25;;;;;;;14.43;95.41;102121.47;10473240;28;20055;-65
2023/10/06 04:53:41;;;;;;;16.70;6.30;;;;;;;14.43;95.15;102133.66;10477133;28;20439;-66
2023/10/06 04:59:02;;;;;;;17.95;6.13;;;;;;;14.48;94.81;102124.84;10461683;28;20717;-66
2023/10/06 05:04:24;;;;;;;14.10;5.97;;;;;;;14.44;94.66;102131.03;10474693;28;20439;-67
2023/10/06 05:09:46;;;;;;;11.93;5.70;;;;;;;14.46;94.42;102115.34;10480911;28;20063;-67
2023/10/06 05:15:11;;;;;;;15.73;5.70;;;;;;;14.45;94.50;102098.84;10481707;28;20041;-67
2023/10/06 05:20:35;;;;;;;12.30;5.63;;;;;;;14.42;95.04;102111.97;10507088;28;20052;-66
2023/10/06 05:26:02;;;;;;;15.32;5.60;;;;;;;14.42;94.09;102106.75;10514732;28;20064;-66
2023/10/06 05:31:24;;;;;;;15.02;5.43;;;;;;;14.42;94.41;102080.72;10481292;28;20132;-66
2023/10/06 05:36:46;;;;;;;14.30;5.50;;;;;;;14.37;94.29;102074.78;10480728;28;20136;-66
2023/10/06 05:42:11;;;;;;;12.35;5.75;;;;;;;14.37;94.25;102069.56;10476343;28;20048;-66
2023/10/06 05:47:33;;;;;;;16.30;5.43;;;;;;;14.35;94.52;102065.28;10477601;28;20052;-66
2023/10/06 05:52:58;;;;;;;14.43;5.07;;;;;;;14.39;94.49;102096.44;10491515;28;20398;-66
2023/10/06 05:58:23;;;;;;;;;;;;;;;14.42;94.20;102083.31;10484709;28;20462;-66
2023/10/06 06:03:46;;;;;;;10.38;4.95;;;;;;;14.46;94.76;102084.09;10487181;28;20397;-66
2023/10/06 06:09:14;;;;;;;12.02;5.00;;;;;;;14.49;93.80;102084.88;10484143;28;20240;-66
2023/10/06 06:14:36;;;;;;;14.27;5.28;;;;;;;14.52;93.90;102069.16;10455373;28;20067;-65
2023/10/06 06:19:58;;;;;;;11.50;5.05;;;;;;;14.54;94.53;102082.16;10461711;28;20064;-66
2023/10/06 06:25:39;;;;;;;13.90;5.35;;;;;;;14.46;96.06;102082.34;10474486;28;20044;-66
2023/10/06 06:31:04;;;;;;;13.00;5.63;;;;;;;14.44;97.29;102091.09;10473563;28;20131;-66
2023/10/06 06:36:26;;;;;;;12.57;5.43;;;;;;;14.40;96.86;102079.03;10468667;28;20080;-66
2023/10/06 06:41:48;;;;;;;17.88;5.70;;;;;;;14.40;96.94;102085.09;10476480;28;20052;-66
2023/10/06 06:47:10;;;;;;;14.43;4.43;;;;;;;14.39;97.40;102080.81;10471817;28;20047;-66
2023/10/06 06:52:32;;;;;;;13.93;4.43;;;;;;;14.41;97.51;102071.16;10473017;28;20063;-66
2023/10/06 06:57:54;;;;;;;17.25;5.57;;;;;;;14.42;98.27;102054.66;10469085;28;20075;-67
2023/10/06 07:03:17;;;;;;;12.00;5.70;;;;;;;14.38;98.82;102073.88;10467516;28;20516;-66
2023/10/06 07:08:40;;;;;;;11.93;4.80;;;;;;;14.38;99.65;102060.84;10470088;28;20411;-66
2023/10/06 07:14:01;;;;;;;12.20;4.88;;;;;;;14.39;99.89;102053.91;10471552;28;20079;-66
2023/10/06 07:19:23;;;;;;;13.45;5.13;;;;;;;14.44;99.28;102055.47;10466108;28;20052;-66
2023/10/06 07:24:45;;;;;;;14.02;5.60;;;;;;;14.48;99.68;102036.28;10465998;28;20040;-66
2023/10/06 07:30:10;;;;;;;11.52;4.70;;;;;;;14.54;98.53;102036.09;10478084;28;20135;-66
2023/10/06 07:35:43;;;;;;;16.97;4.63;;;;;;;14.62;97.95;102038.50;10470169;28;20040;-66
2023/10/06 07:41:05;;;;;;;13.77;5.05;;;;;;;14.72;96.88;102040.81;10479763;28;20048;-65
2023/10/06 07:46:29;;;;;;;10.82;4.03;;;;;;;14.81;97.70;102044.94;10466737;28;20176;-65
2023/10/06 07:51:51;;;;;;;14.90;4.75;;;;;;;14.92;95.50;102051.53;10482156;28;20130;-65
2023/10/06 07:57:12;;;;;;;14.15;4.30;;;;;;;15.00;95.16;102057.38;10461607;28;20041;-65
2023/10/06 08:02:38;;;;;;;15.82;4.10;;;;;;;15.08;95.22;102055.44;10470015;28;20045;-65
2023/10/06 08:08:00;;;;;;;11.57;4.10;;;;;;;15.13;94.81;102057.06;10461434;28;20048;-65
2023/10/06 08:13:23;;;;;;;12.52;4.13;;;;;;;15.13;96.36;102057.06;10468779;28;20052;-65
2023/10/06 08:18:47;;;;;;;15.70;4.50;;;;;;;15.13;96.88;102053.53;10464410;28;20057;-65
2023/10/06 08:24:09;;;;;;;11.25;4.18;;;;;;;15.14;97.21;102051.78;10468021;28;20580;-65
2023/10/06 08:29:32;;;;;;;15.35;4.70;;;;;;;15.09;97.17;102046.69;10463332;28;20059;-65
2023/10/06 08:34:54;;;;;;;14.55;3.92;;;;;;;15.16;98.02;102041.31;10460558;28;20055;-65
2023/10/06 08:40:17;;;;;;;12.55;4.10;;;;;;;15.24;96.47;102028.88;10466295;28;20094;-65
2023/10/06 08:45:42;;;;;;;13.80;4.15;;;;;;;15.34;95.78;102046.84;10465861;28;20052;-65
2023/10/06 08:51:07;;;;;;;10.90;3.65;;;;;;;15.40;96.52;102048.41;10480254;28;20052;-65
2023/10/06 08:56:30;;;;;;;16.48;4.93;;;;;;;15.35;98.79;102039.84;10467344;28;20666;-65
2023/10/06 09:01:51;;;;;;;12.38;4.38;;;;;;;15.33;99.86;102045.13;10467716;28;20518;-66
2023/10/06 09:07:15;;;;;;;15.88;4.32;;;;;;;15.31;100.00;102048.69;10467180;28;20175;-66
2023/10/06 09:12:37;;;;;;;11.65;4.55;;;;;;;15.31;100.00;102038.25;10468666;28;20160;-65
2023/10/06 09:17:59;;;;;;;16.88;4.85;;;;;;;15.27;100.00;102028.81;10465042;28;20037;-65
2023/10/06 09:23:49;;;;;;;15.63;5.03;;;;;;;15.28;100.00;102041.78;10468191;28;20064;-66
2023/10/06 09:29:11;;;;;;;11.02;4.53;;;;;;;15.30;100.00;102041.75;10467496;28;20050;-65
2023/10/06 09:34:32;;;;;;;15.38;5.18;;;;;;;15.31;100.00;102040.88;10487972;28;20483;-66
2023/10/06 09:40:10;;;;;;;15.40;5.10;;;;;;;15.34;100.00;102048.59;10491218;28;20049;-65
2023/10/06 09:45:32;;;;;;;15.10;5.35;;;;;;;15.35;100.00;102039.84;10470902;28;20044;-65
2023/10/06 09:50:54;;;;;;;15.52;5.13;;;;;;;15.44;100.00;102037.03;10489507;28;20057;-66
2023/10/06 09:56:17;;;;;;;16.35;5.30;;;;;;;15.48;99.39;102028.16;10468688;28;20052;-65
2023/10/06 10:01:42;;;;;;;13.38;5.28;;;;;;;15.53;100.00;102023.69;10472759;28;20398;-65
2023/10/06 10:07:05;;;;;;;11.37;5.77;;;;;;;15.55;99.75;102014.91;10469222;28;20072;-66
2023/10/06 10:12:53;;;;;;;11.52;5.20;;;;;;;15.61;99.96;102011.25;10474537;28;20131;-65
2023/10/06 10:18:29;;;;;;;10.85;5.07;;;;;;;15.66;98.93;102022.38;10473070;28;20040;-65
2023/10/06 10:23:51;;;;;;;15.57;5.28;;;;;;;15.69;97.89;102006.63;10468060;28;20105;-66
2023/10/06 10:29:32;;;;;;;18.20;5.15;;;;;;;15.71;97.45;102000.44;10474495;28;20410;-65
2023/10/06 10:35:20;;;;;;;11.40;5.35;;;;;;;15.79;96.86;101997.59;10472250;28;20068;-66
2023/10/06 10:40:47;;;;;;;17.75;5.50;;;;;;;15.83;96.86;101983.53;10473730;28;20459;-65
2023/10/06 10:46:09;;;;;;;15.43;5.03;;;;;;;15.93;97.12;101977.13;10469539;28;20049;-65
2023/10/06 10:51:58;;;;;;;10.02;5.30;;;;;;;16.07;96.45;101977.50;10475911;28;20063;-65
2023/10/06 10:57:21;;;;;;;14.50;4.93;;;;;;;16.24;94.81;101969.09;10468592;28;20152;-65
2023/10/06 11:02:52;;;;;;;13.23;4.75;;;;;;;16.42;93.80;101976.25;10467637;28;20049;-65
2023/10/06 11:08:14;;;;;;;9.65;4.30;;;;;;;16.63;92.88;101960.69;10476023;28;20043;-66
2023/10/06 11:13:36;;;;;;;8.23;4.43;;;;;;;16.85;90.63;101966.81;10467347;28;20735;-66
2023/10/06 11:19:15;;;;;;;11.63;4.20;;;;;;;16.93;90.14;101967.41;10460905;28;20111;-66
2023/10/06 11:24:39;;;;;;;15.25;3.45;;;;;;;17.01;91.47;101952.25;10474435;28;20044;-66
2023/10/06 11:30:07;;;;;;;13.32;4.10;;;;;;;17.18;90.47;101945.53;10469965;28;20076;-66
2023/10/06 11:35:37;;;;;;;11.00;4.03;;;;;;;17.33;89.49;101939.66;10483830;28;20583;-66
2023/10/06 11:40:59;;;;;;;9.52;3.53;;;;;;;17.42;88.56;101928.84;10470663;28;20049;-66
2023/10/06 11:46:21;;;;;;;9.23;4.05;;;;;;;17.46;89.92;101925.19;10470450;28;20399;-66
2023/10/06 11:51:43;;;;;;;9.13;3.47;;;;;;;17.53;88.83;101916.19;10464761;28;20045;-66
2023/10/06 11:57:06;;;;;;;8.95;3.33;;;;;;;17.58;87.73;101924.72;10466182;28;20045;-66
2023/10/06 12:02:28;;;;;;;10.43;3.78;;;;;;;17.57;88.30;101917.78;10472783;28;20052;-66
2023/10/06 12:07:50;;;;;;;12.35;3.33;;;;;;;17.64;87.32;101898.28;10466427;28;20127;-66
2023/10/06 12:13:11;;;;;;;7.28;3.50;;;;;;;17.73;87.80;101897.88;10469179;28;20075;-66
2023/10/06 12:18:35;;;;;;;7.10;3.15;;;;;;;17.76;88.03;101898.59;10470112;28;20040;-66
2023/10/06 12:23:57;;;;;;;8.20;3.00;;;;;;;17.83;86.44;101875.63;10466029;28;20054;-66
2023/10/06 12:29:18;;;;;;;11.55;3.28;;;;;;;17.99;86.84;101860.94;10462243;28;20044;-67
2023/10/06 12:34:40;;;;;;;9.55;3.35;;;;;;;18.12;86.69;101862.13;10463445;28;20124;-66
2023/10/06 12:40:03;;;;;;;8.00;3.17;;;;;;;18.30;85.81;101861.28;10472316;28;20052;-65
2023/10/06 12:45:25;;;;;;;10.82;3.47;;;;;;;18.35;85.21;101843.56;10476846;28;20117;-66
2023/10/06 12:50:47;;;;;;;8.75;3.90;;;;;;;18.42;84.66;101842.41;10484076;28;20041;-66
2023/10/06 12:56:09;;;;;;;6.75;3.00;;;;;;;18.52;84.71;101835.81;10464625;28;20052;-66
2023/10/06 13:01:32;;;;;;;10.02;3.45;;;;;;;18.62;84.16;101834.47;10480998;28;20056;-66
2023/10/06 13:06:54;;;;;;;9.65;3.03;;;;;;;18.69;85.03;101825.41;10501535;28;20127;-65
2023/10/06 13:12:16;;;;;;;9.73;3.10;;;;;;;18.77;84.04;101831.09;10477638;28;20144;-66
2023/10/06 13:17:41;;;;;;;7.57;3.03;;;;;;;18.90;83.37;101839.25;10474280;28;20097;-66
2023/10/06 13:23:04;;;;;;;9.07;3.35;;;;;;;18.97;81.84;101823.13;10486666;28;20044;-67
2023/10/06 13:28:27;;;;;;;7.20;3.10;;;;;;;19.04;82.44;101831.56;10470096;28;20044;-66
2023/10/06 13:33:51;;;;;;;13.75;2.90;;;;;;;19.09;82.05;101834.81;10483657;28;20084;-66
2023/10/06 13:39:15;;;;;;;10.95;3.40;;;;;;;19.20;80.92;101826.41;10478218;28;20496;-66
2023/10/06 13:44:37;;;;;;;9.87;2.93;;;;;;;19.28;80.45;101829.50;10466839;28;20481;-66
2023/10/06 13:49:59;;;;;;;9.40;3.00;;;;;;;19.32;79.09;101812.72;10471946;28;20131;-65
2023/10/06 13:55:24;;;;;;;6.63;2.88;;;;;;;19.39;79.97;101808.84;10473866;28;20036;-66
2023/10/06 14:00:46;;;;;;;10.00;3.10;;;;;;;19.40;79.74;101814.00;10475286;28;20088;-66
2023/10/06 14:06:08;;;;;;;13.88;3.72;;;;;;;19.35;79.44;101815.16;10486188;28;20213;-66
2023/10/06 14:11:30;;;;;;;8.73;3.38;;;;;;;19.24;79.58;101806.94;10470825;28;20545;-65
2023/10/06 14:17:19;;;;;;;13.50;3.15;;;;;;;19.14;80.84;101810.97;10469821;28;20063;-66
2023/10/06 14:22:44;;;;;;;10.23;3.53;;;;;;;19.14;79.28;101806.56;10477043;28;20064;-66
2023/10/06 14:28:09;;;;;;;13.32;3.58;;;;;;;19.11;79.40;101808.47;10470823;28;20139;-66
2023/10/06 14:33:39;;;;;;;;;;;;;;;19.12;79.19;101797.06;10473633;28;20059;-66
2023/10/06 14:50:23;;;;;;;11.55;3.22;;;;;;;19.08;80.72;101798.16;10483863;28;20412;-65
2023/10/06 14:55:47;;;;;;;8.38;3.20;;;;;;;19.15;80.50;101786.41;10465691;28;20045;-66
2023/10/06 15:01:12;;;;;;;13.88;3.60;;;;;;;19.18;79.76;101765.25;10473149;28;20056;-66
2023/10/06 15:06:34;;;;;;;;;;;;;;;19.13;78.89;101765.50;10468855;28;20058;-66
2023/10/06 15:11:58;;;;;;;9.73;3.70;;;;;;;19.12;80.51;101770.84;10465902;28;19925;-66
2023/10/06 15:17:20;;;;;;;12.95;3.42;;;;;;;19.11;80.63;101772.59;10469704;28;20043;-65
2023/10/06 15:22:42;;;;;;;8.35;3.35;;;;;;;19.13;80.23;101772.53;10464576;28;20140;-65
2023/10/06 15:28:04;;;;;;;13.73;3.30;;;;;;;19.08;81.63;101769.28;10467951;28;20409;-65
2023/10/06 15:33:29;;;;;;;9.60;3.58;;;;;;;19.00;80.43;101767.91;10465477;28;20413;-66
2023/10/06 15:38:51;;;;;;;12.48;3.40;;;;;;;18.99;80.70;101770.56;10447622;28;20691;-65
2023/10/06 15:44:14;;;;;;;9.20;3.45;;;;;;;18.99;80.75;101779.31;10462931;28;20045;-65
2023/10/06 15:49:37;;;;;;;9.98;3.22;;;;;;;18.98;81.56;101767.13;10470890;28;20051;-66
2023/10/06 15:54:59;;;;;;;11.05;3.70;;;;;;;18.92;81.73;101761.31;10469623;28;20052;-66
2023/10/06 16:00:22;;;;;;;9.85;3.20;;;;;;;18.92;82.29;101763.94;10463253;28;20139;-65
2023/10/06 16:05:45;;;;;;;9.75;3.20;;;;;;;18.90;82.16;101779.75;10482181;28;20068;-65
2023/10/06 16:11:09;;;;;;;10.25;3.42;;;;;;;18.87;82.88;101774.66;10468735;28;20396;-65
2023/10/06 16:16:34;;;;;;;7.57;3.10;;;;;;;18.82;82.87;101758.31;10466715;28;20041;-66
2023/10/06 16:21:56;;;;;;;8.35;3.15;;;;;;;18.86;82.65;101751.97;10470218;28;20056;-66
2023/10/06 16:27:19;;;;;;;10.98;3.20;;;;;;;18.86;82.86;101749.34;10469394;28;20055;-66
2023/10/06 16:32:40;;;;;;;10.10;3.28;;;;;;;18.86;82.62;101757.22;10457190;28;20055;-66
2023/10/06 16:38:03;;;;;;;8.88;2.72;;;;;;;18.88;83.05;101765.03;10486903;28;20551;-65
2023/10/06 16:43:25;;;;;;;9.77;3.17;;;;;;;18.86;83.41;101757.22;10458914;28;20683;-66
2023/10/06 16:48:47;;;;;;;9.50;3.00;;;;;;;18.88;83.47;101763.25;10468366;28;20124;-66
2023/10/06 16:54:09;;;;;;;7.72;3.15;;;;;;;18.72;85.99;101753.56;10477600;28;20105;-67
2023/10/06 16:59:34;;;;;;;11.40;3.45;;;;;;;18.56;87.00;101752.63;10475015;28;20044;-66
2023/10/06 17:04:56;;;;;;;10.90;3.20;;;;;;;18.47;87.55;101745.22;10462390;28;20044;-66
2023/10/06 17:10:18;;;;;;;10.10;3.15;;;;;;;18.46;86.55;101762.69;10468064;28;20086;-66
2023/10/06 17:15:40;;;;;;;12.10;3.58;;;;;;;18.47;86.26;101761.78;10465014;28;20048;-66
2023/10/06 17:21:06;;;;;;;12.95;2.97;;;;;;;18.49;85.55;101759.09;10470289;28;20458;-66
2023/10/06 17:26:28;;;;;;;10.75;3.42;;;;;;;18.50;85.43;101761.63;10479629;28;20533;-66
2023/10/06 17:31:50;;;;;;;10.15;3.35;;;;;;;18.57;85.11;101776.16;10465080;28;20060;-66
2023/10/06 17:37:12;;;;;;;10.05;3.17;;;;;;;18.57;84.98;101773.53;10458853;28;20072;-66
2023/10/06 17:42:53;;;;;;;9.50;3.42;;;;;;;18.57;85.17;101783.19;10480700;28;20057;-66
2023/10/06 17:48:15;;;;;;;10.85;3.20;;;;;;;18.54;85.26;101772.81;10464744;28;20049;-66
2023/10/06 17:53:37;;;;;;;13.45;3.33;;;;;;;18.60;84.86;101790.88;10450411;28;20129;-66
2023/10/06 17:58:58;;;;;;;10.07;3.00;;;;;;;18.57;85.41;101776.16;10476406;28;20039;-66
2023/10/06 18:04:20;;;;;;;16.92;3.30;;;;;;;18.57;85.43;101777.94;10470513;28;20053;-66
2023/10/06 18:09:42;;;;;;;13.18;3.25;;;;;;;18.56;85.57;101774.47;10472311;28;20047;-66
2023/10/06 18:15:05;;;;;;;10.85;3.15;;;;;;;18.58;85.57;101770.00;10473558;28;20059;-65
2023/10/06 18:20:28;;;;;;;9.25;3.13;;;;;;;18.60;85.40;101768.16;10474245;28;20041;-65
2023/10/06 18:25:49;;;;;;;18.15;3.10;;;;;;;18.61;85.56;101768.97;10470461;28;20239;-66
2023/10/06 18:31:12;;;;;;;14.57;3.20;;;;;;;18.63;85.18;101770.63;10472418;28;20041;-65
2023/10/06 18:36:33;;;;;;;9.50;2.90;;;;;;;18.65;85.06;101771.41;10469182;28;20072;-65
2023/10/06 18:41:55;;;;;;;12.43;3.00;;;;;;;18.64;84.93;101759.19;10467338;28;20474;-66
2023/10/06 18:47:17;;;;;;;11.98;2.80;;;;;;;18.68;84.44;101759.91;10468880;28;20056;-65
2023/10/06 18:52:39;;;;;;;12.13;3.22;;;;;;;18.65;84.58;101760.91;10456933;28;20044;-65
2023/10/06 18:58:00;;;;;;;10.73;2.95;;;;;;;18.70;84.20;101765.91;10470694;28;20040;-64
2023/10/06 19:03:23;;;;;;;14.07;2.70;;;;;;;18.70;84.06;101764.16;10473321;28;20051;-66
2023/10/06 19:08:51;;;;;;;11.25;3.28;;;;;;;18.73;83.95;101753.50;10465064;28;20040;-65
2023/10/06 19:14:12;;;;;;;12.63;3.40;;;;;;;18.66;84.10;101752.09;10469028;28;20048;-65
2023/10/06 19:19:36;;;;;;;9.52;3.00;;;;;;;18.56;86.35;101753.47;10467457;28;20037;-65
2023/10/06 19:24:57;;;;;;;12.90;3.25;;;;;;;18.42;87.12;101741.97;10485535;28;20062;-66
2023/10/06 19:30:19;;;;;;;15.25;3.63;;;;;;;18.35;86.07;101736.13;10472918;28;20040;-66
2023/10/06 19:35:41;;;;;;;11.23;3.03;;;;;;;18.35;85.38;101736.13;10455554;28;20055;-66
2023/10/06 19:41:09;;;;;;;11.02;3.00;;;;;;;18.43;84.97;101749.75;10470967;28;20044;-66
2023/10/06 19:46:31;;;;;;;14.60;3.30;;;;;;;18.41;84.82;101746.34;10479946;28;20140;-66
2023/10/06 19:51:57;;;;;;;10.48;2.78;;;;;;;18.46;83.73;101746.97;10465413;28;20114;-66
2023/10/06 19:57:20;;;;;;;9.95;3.17;;;;;;;18.44;84.30;101748.81;10470175;28;20041;-66
2023/10/06 20:02:42;;;;;;;13.05;2.90;;;;;;;18.42;84.13;101740.16;10470445;28;20135;-65
2023/10/06 20:08:05;;;;;;;9.05;3.10;;;;;;;18.40;83.93;101749.88;10468975;28;20037;-67
2023/10/06 20:13:26;;;;;;;10.80;3.15;;;;;;;18.42;84.13;101745.41;10467814;28;20050;-66
2023/10/06 20:18:49;;;;;;;12.00;3.10;;;;;;;18.42;84.02;101748.03;10474154;28;20106;-65
2023/10/06 20:24:12;;;;;;;12.48;3.08;;;;;;;18.40;84.29;101742.00;10473564;28;20054;-66
2023/10/06 20:29:34;;;;;;;12.02;3.08;;;;;;;18.40;84.53;101747.25;10462775;28;20115;-65
2023/10/06 20:34:55;;;;;;;12.85;3.53;;;;;;;18.39;84.64;101761.25;10473971;28;20440;-66
2023/10/06 20:40:24;;;;;;;13.73;3.33;;;;;;;18.39;84.76;101756.03;10470248;28;20262;-66
2023/10/06 20:45:46;;;;;;;12.50;3.00;;;;;;;18.41;84.83;101745.47;10466020;28;20537;-65
2023/10/06 20:51:17;;;;;;;11.52;3.38;;;;;;;18.32;85.73;101740.66;10469353;28;20081;-66
2023/10/06 20:56:38;;;;;;;20.63;3.30;;;;;;;18.31;85.69;101739.81;10480928;28;20045;-65
2023/10/06 21:02:00;;;;;;;11.07;3.05;;;;;;;18.25;86.08;101745.34;10468874;28;20042;-65
2023/10/06 21:07:22;;;;;;;12.23;3.10;;;;;;;18.21;86.40;101745.53;10468949;28;20118;-65
2023/10/06 21:12:44;;;;;;;15.20;3.00;;;;;;;18.13;87.13;101743.28;10472499;28;20047;-65
2023/10/06 21:18:06;;;;;;;15.10;3.33;;;;;;;18.07;87.48;101740.97;10451317;28;20389;-65
2023/10/06 21:23:28;;;;;;;13.02;3.08;;;;;;;18.08;87.38;101747.88;10460478;28;20136;-66
2023/10/06 21:28:52;;;;;;;21.15;3.85;;;;;;;18.06;88.15;101739.25;10465036;28;20041;-66
2023/10/06 21:34:14;;;;;;;15.75;3.25;;;;;;;18.02;88.31;101732.44;10470822;28;20071;-65
2023/10/06 21:39:36;;;;;;;13.98;3.17;;;;;;;18.03;87.98;101728.94;10472753;28;20048;-65
2023/10/06 21:44:57;;;;;;;11.70;2.90;;;;;;;18.08;87.46;101729.56;10477285;28;20492;-66
2023/10/06 21:50:19;;;;;;;12.93;3.00;;;;;;;18.07;87.20;101710.34;10474795;28;20514;-65
2023/10/06 21:55:41;;;;;;;16.23;3.53;;;;;;;18.13;86.73;101706.59;10472881;28;20141;-65
2023/10/06 22:01:02;;;;;;;10.50;2.85;;;;;;;18.12;86.72;101702.28;10469180;28;20084;-65
2023/10/06 22:06:24;;;;;;;12.02;2.90;;;;;;;18.11;87.05;101699.75;10478889;28;20049;-65
2023/10/06 22:11:47;;;;;;;14.40;2.83;;;;;;;18.08;87.02;101685.00;10472896;28;20852;-65
2023/10/06 22:17:12;;;;;;;9.07;2.60;;;;;;;18.09;87.35;101702.44;10454812;28;20037;-65
2023/10/06 22:22:37;;;;;;;13.65;3.40;;;;;;;18.08;87.53;101705.97;10474059;28;20059;-65
2023/10/06 22:27:58;;;;;;;13.63;3.33;;;;;;;18.08;87.57;101691.13;10473043;28;20044;-66
2023/10/06 22:33:20;;;;;;;15.20;3.20;;;;;;;18.06;87.77;101699.97;10480641;28;20056;-66
2023/10/06 22:38:42;;;;;;;8.63;2.90;;;;;;;18.08;87.74;101695.50;10472599;28;20479;-66
2023/10/06 22:44:04;;;;;;;15.50;3.60;;;;;;;18.11;88.16;101690.13;10476784;28;20468;-66
2023/10/06 22:49:26;;;;;;;11.93;2.85;;;;;;;18.08;88.19;101685.00;10477128;28;20052;-66
2023/10/06 22:54:47;;;;;;;15.68;3.17;;;;;;;18.06;88.46;101686.84;10469110;28;20084;-65
2023/10/06 23:00:10;;;;;;;15.10;3.60;;;;;;;18.12;88.05;101690.97;10482717;28;20045;-66
2023/10/06 23:05:31;;;;;;;12.18;3.20;;;;;;;18.04;88.72;101688.69;10471260;28;20110;-65
2023/10/06 23:10:53;;;;;;;18.20;3.17;;;;;;;17.97;88.72;101682.06;10487551;28;20138;-65
2023/10/06 23:16:17;;;;;;;15.75;3.47;;;;;;;18.02;89.29;101680.06;10467473;28;20143;-65
2023/10/06 23:21:42;;;;;;;15.70;3.60;;;;;;;18.01;89.24;101678.38;10472959;28;20076;-66
2023/10/06 23:27:03;;;;;;;13.45;3.70;;;;;;;17.98;89.30;101668.06;10470902;28;20039;-66
2023/10/06 23:32:28;;;;;;;15.18;3.55;;;;;;;18.04;89.67;101678.22;10466641;28;20040;-65
2023/10/06 23:37:54;;;;;;;16.85;3.35;;;;;;;18.00;90.03;101674.06;10469791;28;20426;-65
2023/10/06 23:43:16;;;;;;;14.80;3.42;;;;;;;17.97;90.29;101671.56;10489392;28;20056;-66
2023/10/06 23:48:38;;;;;;;13.77;3.47;;;;;;;17.98;90.07;101663.63;10472195;28;20036;-65
2023/10/06 23:54:00;;;;;;;14.77;3.50;;;;;;;17.99;89.93;101659.25;10482727;28;20063;-65
2023/10/06 23:59:21;;;;;;;17.38;3.50;;;;;;;17.97;90.27;101655.84;10471147;28;20064;-65
